createdAt,value
2022-08-22T00:00:27.533Z,101843.28
2022-08-22T00:02:49.120Z,101866.16
2022-08-22T00:03:04.654Z,101865.16
2022-08-22T00:03:09.129Z,101868.00
2022-08-22T00:03:10.645Z,101861.38
2022-08-22T00:06:04.094Z,101838.75
2022-08-22T00:08:49.431Z,101837.50
2022-08-22T00:11:47.399Z,101838.75
2022-08-22T00:14:49.423Z,101845.09
2022-08-22T00:17:47.047Z,101843.28
2022-08-22T00:20:28.056Z,101842.44
2022-08-22T00:23:25.068Z,101841.84
2022-08-22T00:25:56.343Z,101838.78
2022-08-22T00:28:40.367Z,101835.94
2022-08-22T00:31:22.354Z,101834.09
2022-08-22T00:34:01.343Z,101840.63
2022-08-22T00:36:34.360Z,101837.97
2022-08-22T00:39:25.798Z,101839.41
2022-08-22T00:42:08.245Z,101836.97
2022-08-22T00:44:49.366Z,101842.72
2022-08-22T00:47:45.353Z,101844.75
2022-08-22T00:50:42.445Z,101841.50
2022-08-22T00:53:28.281Z,101845.78
2022-08-22T00:56:22.671Z,101846.59
2022-08-22T00:59:26.934Z,101850.47
2022-08-22T01:02:09.810Z,101844.34
2022-08-22T01:04:51.229Z,101852.72
2022-08-22T01:07:38.174Z,101850.91
2022-08-22T01:10:14.621Z,101847.63
2022-08-22T01:12:50.010Z,101850.50
2022-08-22T01:15:24.650Z,101853.75
2022-08-22T01:18:09.845Z,101846.81
2022-08-22T01:20:57.834Z,101856.66
2022-08-22T01:23:33.365Z,101856.03
2022-08-22T01:26:19.500Z,101858.28
2022-08-22T01:29:04.402Z,101852.34
2022-08-22T01:32:06.427Z,101847.44
2022-08-22T01:34:54.109Z,101846.81
2022-08-22T01:37:59.912Z,101854.38
2022-08-22T01:41:03.511Z,101852.53
2022-08-22T01:43:59.810Z,101847.03
2022-08-22T01:46:42.802Z,101852.34
2022-08-22T01:49:23.699Z,101854.38
2022-08-22T01:52:12.024Z,101851.31
2022-08-22T01:55:00.743Z,101846.84
2022-08-22T01:57:27.838Z,101850.91
2022-08-22T01:59:59.190Z,101851.94
2022-08-22T02:03:03.395Z,101847.66
2022-08-22T02:05:37.360Z,101849.28
2022-08-22T02:08:20.799Z,101852.34
2022-08-22T02:10:59.694Z,101846.22
2022-08-22T02:13:26.355Z,101853.38
2022-08-22T02:16:14.774Z,101844.75
2022-08-22T02:19:05.376Z,101844.34
2022-08-22T02:21:58.735Z,101848.03
2022-08-22T02:24:37.924Z,101838.63
2022-08-22T02:27:07.479Z,101840.88
2022-08-22T02:29:49.116Z,101831.28
2022-08-22T02:32:28.809Z,101831.47
2022-08-22T02:35:03.508Z,101833.72
2022-08-22T02:37:35.580Z,101830.63
2022-08-22T02:40:10.471Z,101837.59
2022-08-22T02:42:47.091Z,101825.50
2022-08-22T02:45:45.824Z,101829.78
2022-08-22T02:48:19.642Z,101821.63
2022-08-22T02:50:57.844Z,101837.97
2022-08-22T02:53:37.908Z,101835.31
2022-08-22T02:56:08.714Z,101827.34
2022-08-22T02:58:51.702Z,101830.81
2022-08-22T03:01:33.390Z,101828.16
2022-08-22T03:04:30.647Z,101830.22
2022-08-22T03:07:21.309Z,101824.91
2022-08-22T03:09:56.766Z,101824.06
2022-08-22T03:12:56.975Z,101817.72
2022-08-22T03:15:31.139Z,101824.91
2022-08-22T03:18:14.809Z,101818.53
2022-08-22T03:20:54.116Z,101825.50
2022-08-22T03:23:31.648Z,101819.34
2022-08-22T03:26:16.915Z,101814.84
2022-08-22T03:29:00.012Z,101814.44
2022-08-22T03:31:28.974Z,101812.59
2022-08-22T03:34:17.429Z,101810.34
2022-08-22T03:37:10.323Z,101812.19
2022-08-22T03:39:47.840Z,101799.50
2022-08-22T03:42:46.658Z,101798.47
2022-08-22T03:45:34.027Z,101797.88
2022-08-22T03:48:27.953Z,101796.84
2022-08-22T03:51:11.980Z,101790.09
2022-08-22T03:54:05.479Z,101801.34
2022-08-22T03:57:02.098Z,101795.41
2022-08-22T03:59:34.817Z,101801.75
2022-08-22T04:02:43.231Z,101800.53
2022-08-22T04:05:25.389Z,101804.59
2022-08-22T04:08:15.903Z,101807.09
2022-08-22T04:10:48.204Z,101806.06
2022-08-22T04:13:27.676Z,101804.84
2022-08-22T04:16:31.487Z,101809.34
2022-08-22T04:19:16.634Z,101806.69
2022-08-22T04:22:17.029Z,101807.50
2022-08-22T04:24:55.477Z,101803.38
2022-08-22T04:27:55.805Z,101805.44
2022-08-22T04:30:40.889Z,101813.19
2022-08-22T04:33:22.193Z,101809.31
2022-08-22T04:35:57.405Z,101811.16
2022-08-22T04:38:47.796Z,101813.63
2022-08-22T04:41:25.420Z,101816.88
2022-08-22T04:44:00.612Z,101817.28
2022-08-22T04:47:04.289Z,101820.78
2022-08-22T04:49:52.634Z,101817.09
2022-08-22T04:52:41.052Z,101819.53
2022-08-22T04:55:33.079Z,101826.28
2022-08-22T04:58:38.572Z,101825.47
2022-08-22T05:01:24.082Z,101830.16
2022-08-22T05:03:58.306Z,101823.59
2022-08-22T05:06:29.556Z,101827.69
2022-08-22T05:09:01.446Z,101821.97
2022-08-22T05:11:29.914Z,101818.50
2022-08-22T05:14:26.736Z,101829.13
2022-08-22T05:16:56.415Z,101829.94
2022-08-22T05:19:32.214Z,101821.53
2022-08-22T05:21:59.550Z,101820.09
2022-08-22T05:24:33.408Z,101816.84
2022-08-22T05:27:11.217Z,101819.28
2022-08-22T05:29:41.289Z,101824.44
2022-08-22T05:32:16.153Z,101833.84
2022-08-22T05:34:45.905Z,101835.50
2022-08-22T05:37:17.747Z,101835.28
2022-08-22T05:39:49.246Z,101849.81
2022-08-22T05:42:23.702Z,101850.47
2022-08-22T05:44:50.384Z,101851.69
2022-08-22T05:47:38.406Z,101859.03
2022-08-22T05:50:10.867Z,101860.72
2022-08-22T05:53:11.078Z,101855.38
2022-08-22T05:55:49.900Z,101858.50
2022-08-22T05:58:41.573Z,101860.31
2022-08-22T06:01:20.605Z,101855.63
2022-08-22T06:03:57.222Z,101852.97
2022-08-22T06:06:26.925Z,101856.22
2022-08-22T06:09:06.745Z,101853.16
2022-08-22T06:11:45.331Z,101858.28
2022-08-22T06:14:47.771Z,101863.19
2022-08-22T06:17:18.124Z,101861.78
2022-08-22T06:19:50.691Z,101862.59
2022-08-22T06:22:23.614Z,101866.25
2022-08-22T06:24:54.442Z,101870.16
2022-08-22T06:27:24.244Z,101867.06
2022-08-22T06:29:58.603Z,101868.72
2022-08-22T06:32:44.361Z,101869.13
2022-08-22T06:35:25.752Z,101879.53
2022-08-22T06:37:57.674Z,101877.91
2022-08-22T06:40:26.834Z,101875.25
2022-08-22T06:42:54.328Z,101880.97
2022-08-22T06:45:32.770Z,101881.16
2022-08-22T06:48:05.580Z,101887.28
2022-08-22T06:50:39.756Z,101881.56
2022-08-22T06:53:31.584Z,101878.06
2022-08-22T06:56:06.102Z,101880.28
2022-08-22T06:58:40.367Z,101888.09
2022-08-22T07:01:12.682Z,101884.59
2022-08-22T07:04:03.312Z,101879.88
2022-08-22T07:06:36.437Z,101882.72
2022-08-22T07:09:05.683Z,101887.63
2022-08-22T07:11:43.355Z,101888.66
2022-08-22T07:14:15.368Z,101892.53
2022-08-22T07:16:55.181Z,101890.66
2022-08-22T07:19:39.413Z,101895.91
2022-08-22T07:22:15.665Z,101889.69
2022-08-22T07:24:52.969Z,101881.03
2022-08-22T07:27:31.747Z,101881.44
2022-08-22T07:30:10.248Z,101877.72
2022-08-22T07:32:52.502Z,101883.69
2022-08-22T07:35:28.921Z,101885.69
2022-08-22T07:37:55.839Z,101878.50
2022-08-22T07:40:25.380Z,101879.91
2022-08-22T07:43:13.411Z,101876.75
2022-08-22T07:45:57.337Z,101866.47
2022-08-22T07:48:26.981Z,101866.19
2022-08-22T07:51:01.247Z,101870.00
2022-08-22T07:53:57.963Z,101865.38
2022-08-22T07:56:31.539Z,101869.28
2022-08-22T07:59:17.517Z,101858.25
2022-08-22T08:01:51.274Z,101849.91
2022-08-22T08:04:23.242Z,101853.38
2022-08-22T08:06:53.321Z,101846.78
2022-08-22T08:09:21.101Z,101847.56
2022-08-22T08:11:51.083Z,101842.53
2022-08-22T08:14:20.513Z,101836.56
2022-08-22T08:17:09.833Z,101840.16
2022-08-22T08:19:40.803Z,101820.75
2022-08-22T08:22:07.903Z,101822.44
2022-08-22T08:24:42.150Z,101825.94
2022-08-22T08:27:38.601Z,101828.59
2022-08-22T08:30:13.428Z,101823.97
2022-08-22T08:32:46.032Z,101826.53
2022-08-22T08:35:21.199Z,101823.41
2022-08-22T08:37:52.325Z,101822.72
2022-08-22T08:41:03.748Z,101823.69
2022-08-22T08:44:00.911Z,101825.94
2022-08-22T08:46:39.589Z,101821.41
2022-08-22T08:49:35.636Z,101815.75
2022-08-22T08:52:17.769Z,101815.88
2022-08-22T08:55:22.068Z,101820.19
2022-08-22T09:00:51.181Z,101823.00
2022-08-22T09:03:31.155Z,101819.38
2022-08-22T09:06:42.571Z,101827.09
2022-08-22T09:09:46.817Z,101823.13
2022-08-22T09:12:56.390Z,101822.53
2022-08-22T09:15:42.812Z,101822.41
2022-08-22T09:18:22.728Z,101818.13
2022-08-22T09:21:11.196Z,101816.47
2022-08-22T09:24:07.262Z,101812.97
2022-08-22T09:26:58.026Z,101816.75
2022-08-22T09:29:55.179Z,101812.00
2022-08-22T09:32:35.671Z,101813.09
2022-08-22T09:35:11.483Z,101814.78
2022-08-22T09:38:01.091Z,101806.59
2022-08-22T09:40:47.944Z,101805.22
2022-08-22T09:43:33.961Z,101806.06
2022-08-22T09:46:15.395Z,101803.03
2022-08-22T09:49:16.454Z,101800.81
2022-08-22T09:52:15.112Z,101803.25
2022-08-22T09:54:58.779Z,101798.38
2022-08-22T09:57:38.921Z,101792.16
2022-08-22T10:00:05.342Z,101789.91
2022-08-22T10:02:43.509Z,101780.38
2022-08-22T10:05:35.292Z,101788.16
2022-08-22T10:08:11.408Z,101782.28
2022-08-22T10:11:00.473Z,101777.31
2022-08-22T10:13:46.686Z,101776.41
2022-08-22T10:16:41.892Z,101778.41
2022-08-22T10:19:42.530Z,101782.22
2022-08-22T10:22:44.537Z,101771.44
2022-08-22T10:25:42.154Z,101775.53
2022-08-22T10:28:24.131Z,101772.94
2022-08-22T10:30:55.124Z,101762.94
2022-08-22T10:33:33.781Z,101764.28
2022-08-22T10:36:22.095Z,101761.88
2022-08-22T10:38:55.143Z,101771.81
2022-08-22T10:41:38.565Z,101755.53
2022-08-22T10:44:17.401Z,101754.88
2022-08-22T10:46:57.142Z,101757.19
2022-08-22T10:49:33.752Z,101753.63
2022-08-22T10:52:15.319Z,101745.94
2022-08-22T10:54:48.688Z,101737.13
2022-08-22T10:57:36.754Z,101737.94
2022-08-22T11:00:12.669Z,101746.09
2022-08-22T11:03:16.670Z,101749.59
2022-08-22T11:05:50.788Z,101751.53
2022-08-22T11:08:23.547Z,101751.38
2022-08-22T11:11:19.873Z,101753.53
2022-08-22T11:14:12.624Z,101748.91
2022-08-22T11:17:23.571Z,101756.47
2022-08-22T11:20:14.401Z,101758.56
2022-08-22T11:22:40.933Z,101751.25
2022-08-22T11:25:15.923Z,101742.91
2022-08-22T11:28:05.453Z,101751.66
2022-08-22T11:30:47.972Z,101742.47
2022-08-22T11:33:47.350Z,101743.81
2022-08-22T11:36:39.290Z,101739.75
2022-08-22T11:39:18.619Z,101743.44
2022-08-22T11:42:06.722Z,101742.06
2022-08-22T11:44:50.282Z,101746.69
2022-08-22T11:47:26.739Z,101733.75
2022-08-22T11:50:01.102Z,101742.19
2022-08-22T11:52:51.863Z,101732.97
2022-08-22T11:55:23.473Z,101740.28
2022-08-22T11:58:01.274Z,101737.06
2022-08-22T12:00:39.698Z,101738.69
2022-08-22T12:03:33.340Z,101730.31
2022-08-22T12:06:31.738Z,101724.09
2022-08-22T12:09:33.822Z,101724.59
2022-08-22T12:12:08.969Z,101719.19
2022-08-22T12:14:54.682Z,101730.81
2022-08-22T12:17:55.313Z,101726.22
2022-08-22T12:21:01.490Z,101715.81
2022-08-22T12:23:48.720Z,101721.03
2022-08-22T12:26:45.301Z,101713.22
2022-08-22T12:29:39.916Z,101725.06
2022-08-22T12:32:39.687Z,101714.78
2022-08-22T12:35:19.957Z,101725.31
2022-08-22T12:38:02.455Z,101720.34
2022-08-22T12:40:48.521Z,101712.78
2022-08-22T12:43:27.759Z,101713.53
2022-08-22T12:46:23.879Z,101707.78
2022-08-22T12:49:09.037Z,101707.59
2022-08-22T12:52:04.466Z,101710.13
2022-08-22T12:54:34.055Z,101710.50
2022-08-22T12:57:15.213Z,101707.00
2022-08-22T12:59:55.831Z,101708.00
2022-08-22T13:02:32.514Z,101700.97
2022-08-22T13:05:22.744Z,101700.47
2022-08-22T13:08:04.552Z,101690.28
2022-08-22T13:10:58.440Z,101693.81
2022-08-22T13:13:36.972Z,101686.81
2022-08-22T13:16:15.885Z,101697.63
2022-08-22T13:18:53.485Z,101688.44
2022-08-22T13:21:26.229Z,101684.63
2022-08-22T13:24:05.133Z,101688.09
2022-08-22T13:26:40.785Z,101695.44
2022-08-22T13:29:29.249Z,101693.00
2022-08-22T13:32:07.308Z,101687.84
2022-08-22T13:34:39.913Z,101688.66
2022-08-22T13:37:12.199Z,101681.94
2022-08-22T13:39:43.508Z,101677.34
2022-08-22T13:42:27.773Z,101671.94
2022-08-22T13:45:02.383Z,101668.19
2022-08-22T13:47:32.425Z,101665.69
2022-08-22T13:50:23.075Z,101664.50
2022-08-22T13:52:58.445Z,101671.31
2022-08-22T13:55:55.398Z,101670.81
2022-08-22T13:58:41.767Z,101661.59
2022-08-22T14:01:43.912Z,101660.63
2022-08-22T14:04:35.832Z,101657.59
2022-08-22T14:07:03.670Z,101665.06
2022-08-22T14:09:53.048Z,101661.81
2022-08-22T14:12:30.229Z,101659.88
2022-08-22T14:15:04.176Z,101654.97
2022-08-22T14:17:38.513Z,101656.56
2022-08-22T14:20:32.003Z,101656.25
2022-08-22T14:23:04.942Z,101650.81
2022-08-22T14:25:37.141Z,101645.38
2022-08-22T14:28:21.638Z,101638.88
2022-08-22T14:31:01.909Z,101645.41
2022-08-22T14:33:37.033Z,101638.94
2022-08-22T14:36:23.601Z,101643.81
2022-08-22T14:38:59.439Z,101645.75
2022-08-22T14:41:52.941Z,101640.63
2022-08-22T14:44:30.388Z,101630.88
2022-08-22T14:47:04.246Z,101629.56
2022-08-22T14:49:33.859Z,101627.38
2022-08-22T14:52:19.447Z,101624.66
2022-08-22T14:54:46.742Z,101619.69
2022-08-22T14:57:19.835Z,101627.03
2022-08-22T14:59:50.612Z,101623.59
2022-08-22T15:02:25.033Z,101623.34
2022-08-22T15:04:54.917Z,101620.09
2022-08-22T15:07:54.139Z,101623.03
2022-08-22T15:10:25.754Z,101615.00
2022-08-22T15:12:56.885Z,101613.25
2022-08-22T15:15:30.770Z,101613.50
2022-08-22T15:17:57.576Z,101611.41
2022-08-22T15:20:36.174Z,101613.31
2022-08-22T15:23:18.697Z,101605.06
2022-08-22T15:25:56.056Z,101616.19
2022-08-22T15:28:24.499Z,101615.41
2022-08-22T15:30:54.191Z,101608.94
2022-08-22T15:33:32.371Z,101598.81
2022-08-22T15:36:15.889Z,101608.91
2022-08-22T15:39:12.179Z,101597.25
2022-08-22T15:41:46.295Z,101599.66
2022-08-22T15:44:30.947Z,101602.41
2022-08-22T15:47:10.610Z,101606.19
2022-08-22T15:49:52.878Z,101603.72
2022-08-22T15:52:25.989Z,101595.84
2022-08-22T15:54:57.180Z,101594.56
2022-08-22T15:57:40.116Z,101598.41
2022-08-22T16:00:34.121Z,101591.69
2022-08-22T16:03:05.993Z,101602.81
2022-08-22T16:05:54.676Z,101589.59
2022-08-22T16:08:33.114Z,101587.69
2022-08-22T16:11:02.875Z,101584.72
2022-08-22T16:13:33.568Z,101584.47
2022-08-22T16:16:02.784Z,101584.78
2022-08-22T16:18:36.962Z,101583.13
2022-08-22T16:21:06.065Z,101576.66
2022-08-22T16:23:51.122Z,101577.75
2022-08-22T16:26:36.751Z,101571.84
2022-08-22T16:29:17.527Z,101574.69
2022-08-22T16:31:44.629Z,101568.22
2022-08-22T16:34:17.735Z,101569.03
2022-08-22T16:37:06.351Z,101574.16
2022-08-22T16:39:38.603Z,101570.09
2022-08-22T16:42:39.463Z,101567.41
2022-08-22T16:45:11.970Z,101566.31
2022-08-22T16:47:52.784Z,101565.50
2022-08-22T16:50:38.290Z,101559.56
2022-08-22T16:53:10.671Z,101558.22
2022-08-22T16:55:39.465Z,101565.53
2022-08-22T16:58:09.255Z,101555.56
2022-08-22T17:01:04.282Z,101555.84
2022-08-22T17:03:45.212Z,101556.16
2022-08-22T17:06:34.982Z,101556.69
2022-08-22T17:09:32.955Z,101564.78
2022-08-22T17:12:37.029Z,101562.38
2022-08-22T17:15:23.810Z,101559.16
2022-08-22T17:18:18.260Z,101559.69
2022-08-22T17:21:06.716Z,101553.50
2022-08-22T17:23:42.391Z,101554.84
2022-08-22T17:26:26.112Z,101551.34
2022-08-22T17:29:01.703Z,101557.53
2022-08-22T17:31:43.175Z,101553.50
2022-08-22T17:34:12.550Z,101550.53
2022-08-22T17:36:54.354Z,101553.78
2022-08-22T17:39:51.796Z,101561.59
2022-08-22T17:42:38.874Z,101560.78
2022-08-22T17:45:38.264Z,101561.84
2022-08-22T17:48:24.739Z,101568.25
2022-08-22T17:50:57.125Z,101570.94
2022-08-22T17:53:35.198Z,101570.38
2022-08-22T17:56:22.809Z,101572.81
2022-08-22T17:59:20.809Z,101573.34
2022-08-22T18:01:57.072Z,101570.31
2022-08-22T18:04:34.995Z,101570.31
2022-08-22T18:07:25.146Z,101565.66
2022-08-22T18:10:10.891Z,101571.47
2022-08-22T18:12:49.635Z,101567.94
2022-08-22T18:15:25.370Z,101573.31
2022-08-22T18:18:38.966Z,101576.47
2022-08-22T18:21:32.010Z,101571.75
2022-08-22T18:24:12.998Z,101574.63
2022-08-22T18:26:42.553Z,101569.94
2022-08-22T18:29:17.337Z,101579.31
2022-08-22T18:32:02.717Z,101569.00
2022-08-22T18:34:52.304Z,101578.38
2022-08-22T18:37:21.171Z,101576.50
2022-08-22T18:39:56.310Z,101582.84
2022-08-22T18:42:36.844Z,101589.44
2022-08-22T18:45:03.943Z,101583.25
2022-08-22T18:47:33.149Z,101589.88
2022-08-22T18:50:24.404Z,101590.28
2022-08-22T18:52:53.421Z,101590.41
2022-08-22T18:55:43.168Z,101595.16
2022-08-22T18:58:37.993Z,101599.06
2022-08-22T19:01:31.068Z,101602.19
2022-08-22T19:04:08.445Z,101602.19
2022-08-22T19:07:02.692Z,101610.75
2022-08-22T19:10:06.858Z,101616.31
2022-08-22T19:12:49.243Z,101624.13
2022-08-22T19:15:22.806Z,101625.69
2022-08-22T19:18:07.909Z,101631.16
2022-08-22T19:20:57.092Z,101631.56
2022-08-22T19:23:32.683Z,101630.66
2022-08-22T19:26:24.497Z,101642.72
2022-08-22T19:28:53.910Z,101644.25
2022-08-22T19:31:41.845Z,101646.34
2022-08-22T19:34:25.112Z,101638.25
2022-08-22T19:37:31.778Z,101641.88
2022-08-22T19:40:06.818Z,101634.25
2022-08-22T19:42:36.982Z,101634.31
2022-08-22T19:45:26.474Z,101637.22
2022-08-22T19:47:57.989Z,101633.66
2022-08-22T19:50:30.997Z,101636.81
2022-08-22T19:53:06.553Z,101639.97
2022-08-22T19:55:39.123Z,101631.28
2022-08-22T19:58:33.028Z,101634.09
2022-08-22T20:01:12.784Z,101636.31
2022-08-22T20:03:50.411Z,101634.38
2022-08-22T20:06:44.105Z,101633.91
2022-08-22T20:09:22.714Z,101632.34
2022-08-22T20:12:00.151Z,101636.22
2022-08-22T20:14:30.749Z,101631.09
2022-08-22T20:16:59.735Z,101635.97
2022-08-22T20:22:58.357Z,101635.41
2022-08-22T20:25:43.679Z,101638.31
2022-08-22T20:28:29.598Z,101633.66
2022-08-22T20:31:02.280Z,101627.50
2022-08-22T20:33:35.989Z,101629.84
2022-08-22T20:36:06.460Z,101625.19
2022-08-22T20:38:55.944Z,101616.81
2022-08-22T20:41:29.359Z,101626.84
2022-08-22T20:44:02.416Z,101621.28
2022-08-22T20:46:43.654Z,101619.63
2022-08-22T20:49:17.694Z,101611.16
2022-08-22T20:52:10.936Z,101618.00
2022-08-22T20:54:40.470Z,101617.19
2022-08-22T20:57:19.249Z,101617.75
2022-08-22T20:59:54.822Z,101623.38
2022-08-22T21:02:30.186Z,101619.28
2022-08-22T21:05:03.202Z,101607.22
2022-08-22T21:07:36.765Z,101607.31
2022-08-22T21:10:39.853Z,101611.06
2022-08-22T21:13:08.557Z,101611.06
2022-08-22T21:15:47.492Z,101613.94
2022-08-22T21:18:24.680Z,101615.22
2022-08-22T21:20:51.996Z,101611.97
2022-08-22T21:23:19.662Z,101611.97
2022-08-22T21:25:54.938Z,101613.25
2022-08-22T21:28:30.993Z,101607.06
2022-08-22T21:30:58.720Z,101606.28
2022-08-22T21:33:25.714Z,101604.50
2022-08-22T21:35:59.027Z,101603.81
2022-08-22T21:38:26.453Z,101599.16
2022-08-22T21:41:00.044Z,101602.16
2022-08-22T21:43:32.690Z,101599.59
2022-08-22T21:45:59.659Z,101598.78
2022-08-22T21:48:59.961Z,101598.09
2022-08-22T21:51:43.508Z,101600.06
2022-08-22T21:54:25.092Z,101607.88
2022-08-22T21:56:58.408Z,101596.34
2022-08-22T21:59:50.712Z,101594.97
2022-08-22T22:02:28.541Z,101595.19
2022-08-22T22:04:55.945Z,101595.41
2022-08-22T22:07:23.746Z,101599.34
2022-08-22T22:09:54.395Z,101605.16
2022-08-22T22:12:23.241Z,101604.19
2022-08-22T22:14:50.109Z,101599.53
2022-08-22T22:17:18.411Z,101597.78
2022-08-22T22:19:45.544Z,101597.19
2022-08-22T22:22:11.989Z,101596.38
2022-08-22T22:24:38.569Z,101586.50
2022-08-22T22:27:05.932Z,101600.69
2022-08-22T22:29:34.023Z,101602.31
2022-08-22T22:32:00.516Z,101597.41
2022-08-22T22:34:27.195Z,101602.16
2022-08-22T22:36:54.632Z,101605.31
2022-08-22T22:39:21.254Z,101603.66
2022-08-22T22:41:48.924Z,101596.09
2022-08-22T22:44:15.408Z,101597.38
2022-08-22T22:46:41.974Z,101599.69
2022-08-22T22:49:11.634Z,101600.16
2022-08-22T22:51:38.168Z,101602.22
2022-08-22T22:54:05.004Z,101602.47
2022-08-22T22:56:31.528Z,101610.72
2022-08-22T22:59:00.859Z,101606.38
2022-08-22T23:02:01.514Z,101609.41
2022-08-22T23:04:28.680Z,101598.53
2022-08-22T23:06:55.263Z,101605.25
2022-08-22T23:09:21.810Z,101607.13
2022-08-22T23:11:54.741Z,101602.00
2022-08-22T23:14:21.235Z,101604.31
2022-08-22T23:16:47.775Z,101603.25
2022-08-22T23:19:16.771Z,101609.66
2022-08-22T23:21:44.954Z,101601.66
2022-08-22T23:24:12.641Z,101609.41
2022-08-22T23:26:39.703Z,101604.88
2022-08-22T23:29:06.708Z,101604.53
2022-08-22T23:31:42.664Z,101603.22
2022-08-22T23:34:12.023Z,101596.09
2022-08-22T23:36:40.339Z,101605.59
2022-08-22T23:39:08.164Z,101600.88
2022-08-22T23:41:36.570Z,101599.00
2022-08-22T23:44:05.739Z,101599.69
2022-08-22T23:46:32.414Z,101595.69
2022-08-22T23:49:00.510Z,101584.72
2022-08-22T23:51:27.467Z,101589.13
2022-08-22T23:53:56.667Z,101587.69
2022-08-22T23:56:29.652Z,101584.88
2022-08-22T23:58:57.240Z,101577.66
